sensor_id;sensor_type;location;lat;lon;timestamp;P1;durP1;ratioP1;P2;durP2;ratioP2
40945;SDS011;55635;50.264;11.918;2023-04-03T00:02:12;3.58;;;2.83;;
40945;SDS011;55635;50.264;11.918;2023-04-03T00:04:53;7.63;;;2.97;;
40945;SDS011;55635;50.264;11.918;2023-04-03T00:07:34;11.95;;;2.97;;
40945;SDS011;55635;50.264;11.918;2023-04-03T00:10:15;5.85;;;3.25;;
40945;SDS011;55635;50.264;11.918;2023-04-03T00:12:56;8.45;;;3.05;;
40945;SDS011;55635;50.264;11.918;2023-04-03T00:15:37;8.13;;;3.30;;
40945;SDS011;55635;50.264;11.918;2023-04-03T00:18:19;4.35;;;2.80;;
40945;SDS011;55635;50.264;11.918;2023-04-03T00:21:00;4.18;;;3.08;;
40945;SDS011;55635;50.264;11.918;2023-04-03T00:23:41;10.93;;;3.38;;
40945;SDS011;55635;50.264;11.918;2023-04-03T00:26:22;7.25;;;3.03;;
40945;SDS011;55635;50.264;11.918;2023-04-03T00:29:03;3.50;;;3.20;;
40945;SDS011;55635;50.264;11.918;2023-04-03T00:31:44;9.18;;;3.42;;
40945;SDS011;55635;50.264;11.918;2023-04-03T00:34:25;5.63;;;3.13;;
40945;SDS011;55635;50.264;11.918;2023-04-03T00:37:06;5.72;;;3.40;;
40945;SDS011;55635;50.264;11.918;2023-04-03T00:39:47;8.20;;;3.30;;
40945;SDS011;55635;50.264;11.918;2023-04-03T00:42:28;7.32;;;3.33;;
40945;SDS011;55635;50.264;11.918;2023-04-03T00:45:23;6.43;;;3.25;;
40945;SDS011;55635;50.264;11.918;2023-04-03T00:48:21;8.77;;;3.70;;
40945;SDS011;55635;50.264;11.918;2023-04-03T00:51:13;9.32;;;3.25;;
40945;SDS011;55635;50.264;11.918;2023-04-03T00:54:00;8.88;;;3.67;;
40945;SDS011;55635;50.264;11.918;2023-04-03T00:56:45;4.80;;;3.15;;
40945;SDS011;55635;50.264;11.918;2023-04-03T00:59:33;7.18;;;3.22;;
40945;SDS011;55635;50.264;11.918;2023-04-03T01:02:20;4.22;;;3.20;;
40945;SDS011;55635;50.264;11.918;2023-04-03T01:05:01;8.02;;;4.03;;
40945;SDS011;55635;50.264;11.918;2023-04-03T01:07:42;4.18;;;2.72;;
40945;SDS011;55635;50.264;11.918;2023-04-03T01:10:25;3.47;;;3.17;;
40945;SDS011;55635;50.264;11.918;2023-04-03T01:13:20;8.35;;;2.70;;
40945;SDS011;55635;50.264;11.918;2023-04-03T01:16:07;5.50;;;2.33;;
40945;SDS011;55635;50.264;11.918;2023-04-03T01:18:48;7.28;;;2.50;;
40945;SDS011;55635;50.264;11.918;2023-04-03T01:24:37;7.60;;;2.58;;
40945;SDS011;55635;50.264;11.918;2023-04-03T01:27:23;7.85;;;2.10;;
40945;SDS011;55635;50.264;11.918;2023-04-03T01:30:04;7.28;;;2.97;;
40945;SDS011;55635;50.264;11.918;2023-04-03T01:32:47;5.63;;;2.10;;
40945;SDS011;55635;50.264;11.918;2023-04-03T01:35:27;7.93;;;2.17;;
40945;SDS011;55635;50.264;11.918;2023-04-03T01:38:09;6.50;;;2.47;;
40945;SDS011;55635;50.264;11.918;2023-04-03T01:40:50;5.93;;;2.70;;
40945;SDS011;55635;50.264;11.918;2023-04-03T01:43:31;1.85;;;1.73;;
40945;SDS011;55635;50.264;11.918;2023-04-03T01:46:12;4.50;;;2.00;;
40945;SDS011;55635;50.264;11.918;2023-04-03T01:48:54;3.55;;;2.25;;
40945;SDS011;55635;50.264;11.918;2023-04-03T01:51:35;5.70;;;2.22;;
40945;SDS011;55635;50.264;11.918;2023-04-03T01:54:16;5.88;;;2.50;;
40945;SDS011;55635;50.264;11.918;2023-04-03T01:56:58;4.57;;;2.60;;
40945;SDS011;55635;50.264;11.918;2023-04-03T01:59:38;3.08;;;2.13;;
40945;SDS011;55635;50.264;11.918;2023-04-03T02:02:20;4.97;;;2.50;;
40945;SDS011;55635;50.264;11.918;2023-04-03T02:05:01;3.85;;;2.20;;
40945;SDS011;55635;50.264;11.918;2023-04-03T02:07:42;6.25;;;2.55;;
40945;SDS011;55635;50.264;11.918;2023-04-03T02:10:23;5.63;;;2.40;;
40945;SDS011;55635;50.264;11.918;2023-04-03T02:13:04;6.50;;;2.78;;
40945;SDS011;55635;50.264;11.918;2023-04-03T02:15:46;9.13;;;2.67;;
40945;SDS011;55635;50.264;11.918;2023-04-03T02:18:30;6.57;;;3.08;;
40945;SDS011;55635;50.264;11.918;2023-04-03T02:21:11;4.47;;;3.55;;
40945;SDS011;55635;50.264;11.918;2023-04-03T02:23:52;5.07;;;2.60;;
40945;SDS011;55635;50.264;11.918;2023-04-03T02:26:33;6.63;;;2.88;;
40945;SDS011;55635;50.264;11.918;2023-04-03T02:29:14;5.25;;;2.97;;
40945;SDS011;55635;50.264;11.918;2023-04-03T02:31:55;4.43;;;2.78;;
40945;SDS011;55635;50.264;11.918;2023-04-03T02:34:37;5.15;;;3.20;;
40945;SDS011;55635;50.264;11.918;2023-04-03T02:37:19;5.43;;;3.55;;
40945;SDS011;55635;50.264;11.918;2023-04-03T02:40:01;8.80;;;3.97;;
40945;SDS011;55635;50.264;11.918;2023-04-03T02:42:42;9.90;;;3.22;;
40945;SDS011;55635;50.264;11.918;2023-04-03T02:45:23;6.82;;;2.92;;
40945;SDS011;55635;50.264;11.918;2023-04-03T02:48:04;6.30;;;2.92;;
40945;SDS011;55635;50.264;11.918;2023-04-03T02:50:45;6.07;;;2.92;;
40945;SDS011;55635;50.264;11.918;2023-04-03T02:53:26;4.60;;;2.33;;
40945;SDS011;55635;50.264;11.918;2023-04-03T02:56:07;7.63;;;2.47;;
40945;SDS011;55635;50.264;11.918;2023-04-03T02:58:48;4.95;;;2.63;;
40945;SDS011;55635;50.264;11.918;2023-04-03T03:01:31;8.30;;;2.45;;
40945;SDS011;55635;50.264;11.918;2023-04-03T03:04:12;5.75;;;2.42;;
40945;SDS011;55635;50.264;11.918;2023-04-03T03:06:53;5.70;;;2.55;;
40945;SDS011;55635;50.264;11.918;2023-04-03T03:09:35;6.03;;;2.90;;
40945;SDS011;55635;50.264;11.918;2023-04-03T03:12:16;4.43;;;2.80;;
40945;SDS011;55635;50.264;11.918;2023-04-03T03:15:01;9.00;;;3.25;;
40945;SDS011;55635;50.264;11.918;2023-04-03T03:17:43;5.10;;;3.13;;
40945;SDS011;55635;50.264;11.918;2023-04-03T03:20:24;5.40;;;3.10;;
40945;SDS011;55635;50.264;11.918;2023-04-03T03:23:05;7.55;;;2.95;;
40945;SDS011;55635;50.264;11.918;2023-04-03T03:25:46;6.82;;;3.92;;
40945;SDS011;55635;50.264;11.918;2023-04-03T03:28:27;7.93;;;3.22;;
40945;SDS011;55635;50.264;11.918;2023-04-03T03:31:08;4.72;;;3.47;;
40945;SDS011;55635;50.264;11.918;2023-04-03T03:33:52;6.40;;;3.33;;
40945;SDS011;55635;50.264;11.918;2023-04-03T03:36:33;6.35;;;3.72;;
40945;SDS011;55635;50.264;11.918;2023-04-03T03:39:14;6.20;;;3.83;;
40945;SDS011;55635;50.264;11.918;2023-04-03T03:41:55;4.43;;;3.47;;
40945;SDS011;55635;50.264;11.918;2023-04-03T03:44:37;13.02;;;4.53;;
40945;SDS011;55635;50.264;11.918;2023-04-03T03:47:18;10.75;;;4.78;;
40945;SDS011;55635;50.264;11.918;2023-04-03T03:49:59;10.63;;;4.28;;
40945;SDS011;55635;50.264;11.918;2023-04-03T03:52:40;12.02;;;4.68;;
40945;SDS011;55635;50.264;11.918;2023-04-03T03:55:21;9.10;;;4.75;;
40945;SDS011;55635;50.264;11.918;2023-04-03T03:58:06;10.40;;;4.80;;
40945;SDS011;55635;50.264;11.918;2023-04-03T04:00:48;6.72;;;4.20;;
40945;SDS011;55635;50.264;11.918;2023-04-03T04:03:29;8.60;;;3.90;;
40945;SDS011;55635;50.264;11.918;2023-04-03T04:06:10;6.72;;;4.20;;
40945;SDS011;55635;50.264;11.918;2023-04-03T04:08:51;8.27;;;4.00;;
40945;SDS011;55635;50.264;11.918;2023-04-03T04:11:32;9.88;;;4.00;;
40945;SDS011;55635;50.264;11.918;2023-04-03T04:14:14;4.30;;;3.90;;
40945;SDS011;55635;50.264;11.918;2023-04-03T04:16:56;9.80;;;5.35;;
40945;SDS011;55635;50.264;11.918;2023-04-03T04:19:40;4.68;;;4.18;;
40945;SDS011;55635;50.264;11.918;2023-04-03T04:22:21;8.23;;;4.38;;
40945;SDS011;55635;50.264;11.918;2023-04-03T04:25:02;8.20;;;4.80;;
40945;SDS011;55635;50.264;11.918;2023-04-03T04:27:43;7.57;;;4.90;;
40945;SDS011;55635;50.264;11.918;2023-04-03T04:30:27;8.35;;;4.72;;
40945;SDS011;55635;50.264;11.918;2023-04-03T04:33:09;5.97;;;4.93;;
40945;SDS011;55635;50.264;11.918;2023-04-03T04:35:52;8.57;;;4.63;;
40945;SDS011;55635;50.264;11.918;2023-04-03T04:38:35;6.80;;;4.47;;
40945;SDS011;55635;50.264;11.918;2023-04-03T04:41:16;10.98;;;5.55;;
40945;SDS011;55635;50.264;11.918;2023-04-03T04:43:58;17.65;;;7.63;;
40945;SDS011;55635;50.264;11.918;2023-04-03T04:46:40;18.83;;;9.93;;
40945;SDS011;55635;50.264;11.918;2023-04-03T04:49:22;11.10;;;4.82;;
40945;SDS011;55635;50.264;11.918;2023-04-03T04:52:03;9.43;;;5.35;;
40945;SDS011;55635;50.264;11.918;2023-04-03T04:54:45;11.55;;;5.43;;
40945;SDS011;55635;50.264;11.918;2023-04-03T04:57:26;8.85;;;5.25;;
40945;SDS011;55635;50.264;11.918;2023-04-03T05:00:08;11.18;;;6.18;;
40945;SDS011;55635;50.264;11.918;2023-04-03T05:02:50;10.82;;;5.90;;
40945;SDS011;55635;50.264;11.918;2023-04-03T05:05:33;11.20;;;5.90;;
40945;SDS011;55635;50.264;11.918;2023-04-03T05:08:15;9.18;;;5.25;;
40945;SDS011;55635;50.264;11.918;2023-04-03T05:10:57;14.10;;;6.82;;
40945;SDS011;55635;50.264;11.918;2023-04-03T05:13:40;8.23;;;5.70;;
40945;SDS011;55635;50.264;11.918;2023-04-03T05:16:21;8.15;;;5.22;;
40945;SDS011;55635;50.264;11.918;2023-04-03T05:19:02;9.18;;;5.30;;
40945;SDS011;55635;50.264;11.918;2023-04-03T05:21:44;10.15;;;5.85;;
40945;SDS011;55635;50.264;11.918;2023-04-03T05:24:28;15.43;;;7.00;;
40945;SDS011;55635;50.264;11.918;2023-04-03T05:27:09;14.65;;;6.80;;
40945;SDS011;55635;50.264;11.918;2023-04-03T05:29:54;7.05;;;5.03;;
40945;SDS011;55635;50.264;11.918;2023-04-03T05:32:36;11.82;;;6.18;;
40945;SDS011;55635;50.264;11.918;2023-04-03T05:35:28;12.48;;;6.60;;
40945;SDS011;55635;50.264;11.918;2023-04-03T05:38:12;8.82;;;6.00;;
40945;SDS011;55635;50.264;11.918;2023-04-03T05:40:53;11.30;;;5.43;;
40945;SDS011;55635;50.264;11.918;2023-04-03T05:43:34;11.52;;;6.78;;
40945;SDS011;55635;50.264;11.918;2023-04-03T05:46:18;14.15;;;6.75;;
40945;SDS011;55635;50.264;11.918;2023-04-03T05:49:05;10.80;;;6.63;;
40945;SDS011;55635;50.264;11.918;2023-04-03T05:51:48;11.63;;;6.18;;
40945;SDS011;55635;50.264;11.918;2023-04-03T05:54:37;11.63;;;6.63;;
40945;SDS011;55635;50.264;11.918;2023-04-03T05:57:29;10.25;;;6.60;;
40945;SDS011;55635;50.264;11.918;2023-04-03T06:00:13;10.32;;;5.93;;
40945;SDS011;55635;50.264;11.918;2023-04-03T06:03:07;10.15;;;5.65;;
40945;SDS011;55635;50.264;11.918;2023-04-03T06:05:48;12.90;;;6.20;;
40945;SDS011;55635;50.264;11.918;2023-04-03T06:08:29;13.95;;;5.72;;
40945;SDS011;55635;50.264;11.918;2023-04-03T06:11:11;12.48;;;6.43;;
40945;SDS011;55635;50.264;11.918;2023-04-03T06:13:52;9.25;;;5.40;;
40945;SDS011;55635;50.264;11.918;2023-04-03T06:16:33;9.93;;;6.00;;
40945;SDS011;55635;50.264;11.918;2023-04-03T06:19:14;14.43;;;5.93;;
40945;SDS011;55635;50.264;11.918;2023-04-03T06:22:01;11.43;;;6.18;;
40945;SDS011;55635;50.264;11.918;2023-04-03T06:24:43;10.27;;;5.65;;
40945;SDS011;55635;50.264;11.918;2023-04-03T06:27:24;13.05;;;5.95;;
40945;SDS011;55635;50.264;11.918;2023-04-03T06:30:06;7.72;;;5.53;;
40945;SDS011;55635;50.264;11.918;2023-04-03T06:32:48;10.07;;;5.60;;
40945;SDS011;55635;50.264;11.918;2023-04-03T06:35:29;13.05;;;6.78;;
40945;SDS011;55635;50.264;11.918;2023-04-03T06:38:10;7.35;;;5.70;;
40945;SDS011;55635;50.264;11.918;2023-04-03T06:40:51;7.65;;;5.90;;
40945;SDS011;55635;50.264;11.918;2023-04-03T06:43:33;10.38;;;6.28;;
40945;SDS011;55635;50.264;11.918;2023-04-03T06:46:15;12.00;;;6.88;;
40945;SDS011;55635;50.264;11.918;2023-04-03T06:48:58;11.48;;;6.97;;
40945;SDS011;55635;50.264;11.918;2023-04-03T06:51:38;10.63;;;6.20;;
40945;SDS011;55635;50.264;11.918;2023-04-03T06:54:19;9.25;;;5.53;;
40945;SDS011;55635;50.264;11.918;2023-04-03T06:57:00;8.10;;;5.95;;
40945;SDS011;55635;50.264;11.918;2023-04-03T06:59:42;9.50;;;5.80;;
40945;SDS011;55635;50.264;11.918;2023-04-03T07:02:23;8.82;;;5.93;;
40945;SDS011;55635;50.264;11.918;2023-04-03T07:05:04;8.82;;;5.88;;
40945;SDS011;55635;50.264;11.918;2023-04-03T07:07:45;7.45;;;5.03;;
40945;SDS011;55635;50.264;11.918;2023-04-03T07:10:26;9.95;;;5.75;;
40945;SDS011;55635;50.264;11.918;2023-04-03T07:13:07;8.02;;;5.25;;
40945;SDS011;55635;50.264;11.918;2023-04-03T07:15:48;8.43;;;4.90;;
40945;SDS011;55635;50.264;11.918;2023-04-03T07:18:30;7.10;;;5.60;;
40945;SDS011;55635;50.264;11.918;2023-04-03T07:21:12;6.65;;;4.53;;
40945;SDS011;55635;50.264;11.918;2023-04-03T07:23:53;7.78;;;4.82;;
40945;SDS011;55635;50.264;11.918;2023-04-03T07:26:35;9.15;;;5.10;;
40945;SDS011;55635;50.264;11.918;2023-04-03T07:29:16;11.18;;;4.88;;
40945;SDS011;55635;50.264;11.918;2023-04-03T07:31:57;7.72;;;4.50;;
40945;SDS011;55635;50.264;11.918;2023-04-03T07:34:38;5.22;;;4.35;;
40945;SDS011;55635;50.264;11.918;2023-04-03T07:37:19;6.38;;;3.80;;
40945;SDS011;55635;50.264;11.918;2023-04-03T07:40:00;6.03;;;3.58;;
40945;SDS011;55635;50.264;11.918;2023-04-03T07:42:43;6.30;;;3.63;;
40945;SDS011;55635;50.264;11.918;2023-04-03T07:45:24;4.82;;;3.92;;
40945;SDS011;55635;50.264;11.918;2023-04-03T07:48:06;4.22;;;3.28;;
40945;SDS011;55635;50.264;11.918;2023-04-03T07:50:47;5.13;;;3.85;;
40945;SDS011;55635;50.264;11.918;2023-04-03T07:53:28;8.70;;;3.53;;
40945;SDS011;55635;50.264;11.918;2023-04-03T07:56:09;3.90;;;3.00;;
40945;SDS011;55635;50.264;11.918;2023-04-03T07:58:50;7.00;;;4.28;;
40945;SDS011;55635;50.264;11.918;2023-04-03T08:01:31;6.15;;;3.67;;
40945;SDS011;55635;50.264;11.918;2023-04-03T08:04:13;6.32;;;4.28;;
40945;SDS011;55635;50.264;11.918;2023-04-03T08:06:54;6.90;;;4.07;;
40945;SDS011;55635;50.264;11.918;2023-04-03T08:09:35;5.88;;;3.10;;
40945;SDS011;55635;50.264;11.918;2023-04-03T08:12:16;5.25;;;3.25;;
40945;SDS011;55635;50.264;11.918;2023-04-03T08:14:59;5.05;;;3.30;;
40945;SDS011;55635;50.264;11.918;2023-04-03T08:17:41;8.60;;;3.67;;
40945;SDS011;55635;50.264;11.918;2023-04-03T08:20:22;5.95;;;3.85;;
40945;SDS011;55635;50.264;11.918;2023-04-03T08:23:02;5.72;;;3.47;;
40945;SDS011;55635;50.264;11.918;2023-04-03T08:25:43;3.55;;;2.55;;
40945;SDS011;55635;50.264;11.918;2023-04-03T08:28:25;3.85;;;2.80;;
40945;SDS011;55635;50.264;11.918;2023-04-03T08:31:07;6.15;;;3.60;;
40945;SDS011;55635;50.264;11.918;2023-04-03T08:33:51;8.77;;;4.28;;
40945;SDS011;55635;50.264;11.918;2023-04-03T08:36:32;5.03;;;3.67;;
40945;SDS011;55635;50.264;11.918;2023-04-03T08:39:13;7.40;;;4.63;;
40945;SDS011;55635;50.264;11.918;2023-04-03T08:41:55;4.72;;;3.10;;
40945;SDS011;55635;50.264;11.918;2023-04-03T08:44:46;3.67;;;2.30;;
40945;SDS011;55635;50.264;11.918;2023-04-03T08:47:43;5.45;;;3.03;;
40945;SDS011;55635;50.264;11.918;2023-04-03T08:51:25;3.67;;;2.20;;
40945;SDS011;55635;50.264;11.918;2023-04-03T08:54:12;3.42;;;2.00;;
40945;SDS011;55635;50.264;11.918;2023-04-03T08:57:09;2.35;;;2.00;;
40945;SDS011;55635;50.264;11.918;2023-04-03T08:59:51;2.55;;;1.83;;
40945;SDS011;55635;50.264;11.918;2023-04-03T09:02:41;4.78;;;2.50;;
40945;SDS011;55635;50.264;11.918;2023-04-03T09:08:45;3.38;;;2.10;;
40945;SDS011;55635;50.264;11.918;2023-04-03T09:24:12;3.97;;;2.25;;
40945;SDS011;55635;50.264;11.918;2023-04-03T09:27:01;5.25;;;1.80;;
40945;SDS011;55635;50.264;11.918;2023-04-03T09:29:48;2.10;;;1.90;;
40945;SDS011;55635;50.264;11.918;2023-04-03T09:32:34;2.17;;;1.95;;
40945;SDS011;55635;50.264;11.918;2023-04-03T09:41:07;3.72;;;2.85;;
40945;SDS011;55635;50.264;11.918;2023-04-03T09:43:57;4.18;;;2.70;;
40945;SDS011;55635;50.264;11.918;2023-04-03T09:46:38;4.10;;;2.33;;
40945;SDS011;55635;50.264;11.918;2023-04-03T09:49:19;4.35;;;2.30;;
40945;SDS011;55635;50.264;11.918;2023-04-03T09:52:11;2.40;;;2.05;;
40945;SDS011;55635;50.264;11.918;2023-04-03T09:55:13;4.57;;;3.25;;
40945;SDS011;55635;50.264;11.918;2023-04-03T09:58:20;4.25;;;1.70;;
40945;SDS011;55635;50.264;11.918;2023-04-03T10:06:54;3.90;;;2.00;;
40945;SDS011;55635;50.264;11.918;2023-04-03T10:09:35;5.90;;;2.10;;
40945;SDS011;55635;50.264;11.918;2023-04-03T10:12:19;6.40;;;2.47;;
40945;SDS011;55635;50.264;11.918;2023-04-03T10:15:00;4.60;;;2.13;;
40945;SDS011;55635;50.264;11.918;2023-04-03T10:20:43;2.35;;;2.00;;
40945;SDS011;55635;50.264;11.918;2023-04-03T10:23:41;2.85;;;1.90;;
40945;SDS011;55635;50.264;11.918;2023-04-03T10:36:35;1.42;;;1.30;;
40945;SDS011;55635;50.264;11.918;2023-04-03T10:44:04;3.08;;;1.63;;
40945;SDS011;55635;50.264;11.918;2023-04-03T10:47:05;7.18;;;2.28;;
40945;SDS011;55635;50.264;11.918;2023-04-03T10:50:31;3.95;;;2.30;;
40945;SDS011;55635;50.264;11.918;2023-04-03T10:56:30;4.82;;;2.50;;
40945;SDS011;55635;50.264;11.918;2023-04-03T11:02:27;7.00;;;2.70;;
40945;SDS011;55635;50.264;11.918;2023-04-03T11:05:18;8.70;;;3.10;;
40945;SDS011;55635;50.264;11.918;2023-04-03T11:08:19;9.90;;;4.82;;
40945;SDS011;55635;50.264;11.918;2023-04-03T11:11:32;12.35;;;5.15;;
40945;SDS011;55635;50.264;11.918;2023-04-03T11:14:27;9.90;;;4.97;;
40945;SDS011;55635;50.264;11.918;2023-04-03T11:22:58;2.45;;;2.20;;
40945;SDS011;55635;50.264;11.918;2023-04-03T11:26:21;10.25;;;4.80;;
40945;SDS011;55635;50.264;11.918;2023-04-03T11:29:06;11.65;;;6.20;;
40945;SDS011;55635;50.264;11.918;2023-04-03T11:32:00;7.28;;;3.58;;
40945;SDS011;55635;50.264;11.918;2023-04-03T11:35:02;6.68;;;4.28;;
40945;SDS011;55635;50.264;11.918;2023-04-03T11:37:48;7.47;;;4.85;;
40945;SDS011;55635;50.264;11.918;2023-04-03T11:40:33;6.00;;;3.50;;
40945;SDS011;55635;50.264;11.918;2023-04-03T11:43:20;4.50;;;1.75;;
40945;SDS011;55635;50.264;11.918;2023-04-03T11:46:10;2.72;;;1.33;;
40945;SDS011;55635;50.264;11.918;2023-04-03T11:48:51;6.45;;;3.55;;
40945;SDS011;55635;50.264;11.918;2023-04-03T11:51:40;3.55;;;2.10;;
40945;SDS011;55635;50.264;11.918;2023-04-03T11:57:43;4.80;;;2.15;;
40945;SDS011;55635;50.264;11.918;2023-04-03T12:00:46;6.00;;;2.08;;
40945;SDS011;55635;50.264;11.918;2023-04-03T12:03:35;2.10;;;1.52;;
40945;SDS011;55635;50.264;11.918;2023-04-03T12:12:39;3.80;;;1.70;;
40945;SDS011;55635;50.264;11.918;2023-04-03T12:15:22;3.65;;;1.30;;
40945;SDS011;55635;50.264;11.918;2023-04-03T12:24:37;1.38;;;1.20;;
40945;SDS011;55635;50.264;11.918;2023-04-03T12:27:23;3.47;;;1.85;;
40945;SDS011;55635;50.264;11.918;2023-04-03T12:30:34;3.15;;;1.40;;
40945;SDS011;55635;50.264;11.918;2023-04-03T12:36:26;3.40;;;1.10;;
40945;SDS011;55635;50.264;11.918;2023-04-03T12:45:27;2.25;;;1.30;;
40945;SDS011;55635;50.264;11.918;2023-04-03T12:48:12;2.67;;;1.20;;
40945;SDS011;55635;50.264;11.918;2023-04-03T12:51:02;1.90;;;1.20;;
40945;SDS011;55635;50.264;11.918;2023-04-03T12:53:43;3.05;;;1.70;;
40945;SDS011;55635;50.264;11.918;2023-04-03T13:02:09;3.63;;;1.70;;
40945;SDS011;55635;50.264;11.918;2023-04-03T13:05:05;2.22;;;1.05;;
40945;SDS011;55635;50.264;11.918;2023-04-03T13:07:52;2.33;;;1.25;;
40945;SDS011;55635;50.264;11.918;2023-04-03T13:11:00;6.25;;;1.20;;
40945;SDS011;55635;50.264;11.918;2023-04-03T13:14:05;1.88;;;1.00;;
40945;SDS011;55635;50.264;11.918;2023-04-03T13:17:02;4.03;;;1.40;;
40945;SDS011;55635;50.264;11.918;2023-04-03T13:19:50;2.40;;;1.30;;
40945;SDS011;55635;50.264;11.918;2023-04-03T13:22:36;3.40;;;1.05;;
40945;SDS011;55635;50.264;11.918;2023-04-03T13:25:29;2.92;;;1.10;;
40945;SDS011;55635;50.264;11.918;2023-04-03T13:28:19;1.90;;;0.95;;
40945;SDS011;55635;50.264;11.918;2023-04-03T13:31:09;4.80;;;1.50;;
40945;SDS011;55635;50.264;11.918;2023-04-03T13:34:07;2.28;;;1.00;;
40945;SDS011;55635;50.264;11.918;2023-04-03T13:39:35;3.75;;;1.10;;
40945;SDS011;55635;50.264;11.918;2023-04-03T13:42:23;3.35;;;1.20;;
40945;SDS011;55635;50.264;11.918;2023-04-03T13:45:24;3.05;;;1.10;;
40945;SDS011;55635;50.264;11.918;2023-04-03T13:48:17;1.95;;;1.05;;
40945;SDS011;55635;50.264;11.918;2023-04-03T13:51:01;2.50;;;0.80;;
40945;SDS011;55635;50.264;11.918;2023-04-03T13:53:47;2.53;;;0.90;;
40945;SDS011;55635;50.264;11.918;2023-04-03T13:56:36;2.80;;;1.50;;
40945;SDS011;55635;50.264;11.918;2023-04-03T13:59:23;2.83;;;0.98;;
40945;SDS011;55635;50.264;11.918;2023-04-03T14:02:14;3.70;;;1.02;;
40945;SDS011;55635;50.264;11.918;2023-04-03T14:05:19;3.45;;;1.13;;
40945;SDS011;55635;50.264;11.918;2023-04-03T14:08:01;4.50;;;0.93;;
40945;SDS011;55635;50.264;11.918;2023-04-03T14:10:42;2.92;;;1.00;;
40945;SDS011;55635;50.264;11.918;2023-04-03T14:13:24;3.72;;;1.27;;
40945;SDS011;55635;50.264;11.918;2023-04-03T14:16:05;2.45;;;1.15;;
40945;SDS011;55635;50.264;11.918;2023-04-03T14:18:47;3.40;;;2.40;;
40945;SDS011;55635;50.264;11.918;2023-04-03T14:21:29;5.38;;;1.73;;
40945;SDS011;55635;50.264;11.918;2023-04-03T14:24:10;3.65;;;1.52;;
40945;SDS011;55635;50.264;11.918;2023-04-03T14:26:52;1.95;;;0.80;;
40945;SDS011;55635;50.264;11.918;2023-04-03T14:29:35;3.10;;;0.88;;
40945;SDS011;55635;50.264;11.918;2023-04-03T14:32:16;2.20;;;1.58;;
40945;SDS011;55635;50.264;11.918;2023-04-03T14:34:59;1.80;;;1.13;;
40945;SDS011;55635;50.264;11.918;2023-04-03T14:37:41;2.30;;;1.38;;
40945;SDS011;55635;50.264;11.918;2023-04-03T14:40:23;1.67;;;1.38;;
40945;SDS011;55635;50.264;11.918;2023-04-03T14:43:08;2.42;;;2.20;;
40945;SDS011;55635;50.264;11.918;2023-04-03T14:45:52;3.47;;;1.65;;
40945;SDS011;55635;50.264;11.918;2023-04-03T14:48:33;3.92;;;1.20;;
40945;SDS011;55635;50.264;11.918;2023-04-03T14:51:14;7.03;;;3.67;;
40945;SDS011;55635;50.264;11.918;2023-04-03T14:53:55;5.43;;;3.00;;
40945;SDS011;55635;50.264;11.918;2023-04-03T14:56:37;3.33;;;1.48;;
40945;SDS011;55635;50.264;11.918;2023-04-03T14:59:18;2.45;;;1.45;;
40945;SDS011;55635;50.264;11.918;2023-04-03T15:02:00;4.97;;;2.53;;
40945;SDS011;55635;50.264;11.918;2023-04-03T15:04:41;4.22;;;1.92;;
40945;SDS011;55635;50.264;11.918;2023-04-03T15:07:22;7.93;;;4.25;;
40945;SDS011;55635;50.264;11.918;2023-04-03T15:10:14;4.00;;;2.00;;
40945;SDS011;55635;50.264;11.918;2023-04-03T15:12:55;6.97;;;3.90;;
40945;SDS011;55635;50.264;11.918;2023-04-03T15:15:36;7.07;;;3.10;;
40945;SDS011;55635;50.264;11.918;2023-04-03T15:18:18;6.18;;;2.83;;
40945;SDS011;55635;50.264;11.918;2023-04-03T15:21:04;6.10;;;2.55;;
40945;SDS011;55635;50.264;11.918;2023-04-03T15:23:45;3.50;;;1.20;;
40945;SDS011;55635;50.264;11.918;2023-04-03T15:26:26;2.15;;;0.88;;
40945;SDS011;55635;50.264;11.918;2023-04-03T15:29:07;4.35;;;2.28;;
40945;SDS011;55635;50.264;11.918;2023-04-03T15:31:48;2.15;;;1.27;;
40945;SDS011;55635;50.264;11.918;2023-04-03T15:34:32;2.60;;;1.90;;
40945;SDS011;55635;50.264;11.918;2023-04-03T15:37:13;2.85;;;1.75;;
40945;SDS011;55635;50.264;11.918;2023-04-03T15:39:54;2.60;;;1.27;;
40945;SDS011;55635;50.264;11.918;2023-04-03T15:42:35;2.13;;;1.00;;
40945;SDS011;55635;50.264;11.918;2023-04-03T15:45:16;2.35;;;1.00;;
40945;SDS011;55635;50.264;11.918;2023-04-03T15:47:57;1.30;;;0.90;;
40945;SDS011;55635;50.264;11.918;2023-04-03T15:50:38;2.67;;;1.27;;
40945;SDS011;55635;50.264;11.918;2023-04-03T15:53:20;4.63;;;2.03;;
40945;SDS011;55635;50.264;11.918;2023-04-03T15:56:01;2.22;;;1.30;;
40945;SDS011;55635;50.264;11.918;2023-04-03T15:58:42;2.75;;;1.58;;
40945;SDS011;55635;50.264;11.918;2023-04-03T16:01:23;3.92;;;1.17;;
40945;SDS011;55635;50.264;11.918;2023-04-03T16:04:05;2.42;;;0.90;;
40945;SDS011;55635;50.264;11.918;2023-04-03T16:06:48;1.27;;;1.17;;
40945;SDS011;55635;50.264;11.918;2023-04-03T16:09:30;3.58;;;1.58;;
40945;SDS011;55635;50.264;11.918;2023-04-03T16:12:12;5.03;;;1.70;;
40945;SDS011;55635;50.264;11.918;2023-04-03T16:14:53;4.38;;;1.15;;
40945;SDS011;55635;50.264;11.918;2023-04-03T16:17:34;4.15;;;1.17;;
40945;SDS011;55635;50.264;11.918;2023-04-03T16:20:17;2.72;;;1.10;;
40945;SDS011;55635;50.264;11.918;2023-04-03T16:22:58;1.60;;;1.05;;
40945;SDS011;55635;50.264;11.918;2023-04-03T16:25:40;2.30;;;0.90;;
40945;SDS011;55635;50.264;11.918;2023-04-03T16:28:26;1.83;;;0.93;;
40945;SDS011;55635;50.264;11.918;2023-04-03T16:31:07;4.32;;;1.42;;
40945;SDS011;55635;50.264;11.918;2023-04-03T16:33:48;2.50;;;1.20;;
40945;SDS011;55635;50.264;11.918;2023-04-03T16:36:29;2.10;;;1.30;;
40945;SDS011;55635;50.264;11.918;2023-04-03T16:39:10;5.07;;;1.10;;
40945;SDS011;55635;50.264;11.918;2023-04-03T16:41:51;5.13;;;1.30;;
40945;SDS011;55635;50.264;11.918;2023-04-03T16:44:32;3.70;;;1.40;;
40945;SDS011;55635;50.264;11.918;2023-04-03T16:47:13;4.15;;;1.35;;
40945;SDS011;55635;50.264;11.918;2023-04-03T16:49:57;2.83;;;1.70;;
40945;SDS011;55635;50.264;11.918;2023-04-03T16:52:38;6.10;;;2.00;;
40945;SDS011;55635;50.264;11.918;2023-04-03T16:55:19;2.63;;;1.15;;
40945;SDS011;55635;50.264;11.918;2023-04-03T16:58:00;2.67;;;1.40;;
40945;SDS011;55635;50.264;11.918;2023-04-03T17:00:42;6.20;;;1.30;;
40945;SDS011;55635;50.264;11.918;2023-04-03T17:03:23;2.60;;;1.27;;
40945;SDS011;55635;50.264;11.918;2023-04-03T17:06:05;1.88;;;1.75;;
40945;SDS011;55635;50.264;11.918;2023-04-03T17:08:47;2.67;;;1.23;;
40945;SDS011;55635;50.264;11.918;2023-04-03T17:11:41;1.70;;;1.13;;
40945;SDS011;55635;50.264;11.918;2023-04-03T17:14:26;2.58;;;1.08;;
40945;SDS011;55635;50.264;11.918;2023-04-03T17:17:07;3.10;;;1.88;;
40945;SDS011;55635;50.264;11.918;2023-04-03T17:19:49;5.65;;;1.38;;
40945;SDS011;55635;50.264;11.918;2023-04-03T17:22:30;1.90;;;1.38;;
40945;SDS011;55635;50.264;11.918;2023-04-03T17:25:12;2.45;;;1.48;;
40945;SDS011;55635;50.264;11.918;2023-04-03T17:27:54;5.82;;;1.60;;
40945;SDS011;55635;50.264;11.918;2023-04-03T17:30:35;2.20;;;1.30;;
40945;SDS011;55635;50.264;11.918;2023-04-03T17:33:16;4.53;;;1.45;;
40945;SDS011;55635;50.264;11.918;2023-04-03T17:35:58;3.42;;;1.75;;
40945;SDS011;55635;50.264;11.918;2023-04-03T17:38:43;4.00;;;1.40;;
40945;SDS011;55635;50.264;11.918;2023-04-03T17:41:24;3.03;;;1.48;;
40945;SDS011;55635;50.264;11.918;2023-04-03T17:44:05;7.30;;;2.10;;
40945;SDS011;55635;50.264;11.918;2023-04-03T17:46:46;2.47;;;1.50;;
40945;SDS011;55635;50.264;11.918;2023-04-03T17:49:27;2.88;;;1.50;;